Time;durP1;ratioP1;P1;durP2;ratioP2;P2;SDS_P1;SDS_P2;PMS_P1;PMS_P2;Temp;Humidity;BMP_temperature;BMP_pressure;BME280_temperature;BME280_humidity;BME280_pressure;Samples;Min_cycle;Max_cycle;Signal;HPM_P1;HPM_P2
2023/03/27 00:01:32;;;;;;;6.75;1.83;;;;;;;2.43;94.18;101501.41;5116487;28;20022;-75
2023/03/27 00:03:57;;;;;;;9.70;2.08;;;;;;;2.29;94.67;101494.03;5116289;28;20460;-74
2023/03/27 00:06:23;;;;;;;9.05;2.63;;;;;;;2.12;95.77;101480.75;5097949;28;20027;-73
2023/03/27 00:08:50;;;;;;;11.60;2.05;;;;;;;2.23;95.58;101514.53;5116276;28;20111;-83
2023/03/27 00:11:17;;;;;;;12.43;2.80;;;;;;;2.05;96.47;101509.75;5116228;28;20357;-83
2023/03/27 00:13:43;;;;;;;11.55;2.53;;;;;;;2.05;97.04;101519.94;5115948;28;20491;-80
2023/03/27 00:16:09;;;;;;;14.65;2.60;;;;;;;1.92;97.39;101521.84;5116119;28;20061;-83
2023/03/27 00:18:35;;;;;;;11.93;2.70;;;;;;;1.90;98.30;101530.38;5115685;28;20104;-84
2023/03/27 00:21:01;;;;;;;7.50;1.85;;;;;;;1.62;98.78;101501.97;5115778;28;20035;-82
2023/03/27 00:23:28;;;;;;;6.68;2.25;;;;;;;1.75;99.66;101541.63;5115652;28;20030;-84
2023/03/27 00:25:56;;;;;;;10.57;2.13;;;;;;;1.76;100.00;101545.03;5115652;28;20138;-82
2023/03/27 00:28:25;;;;;;;8.55;2.20;;;;;;;1.78;99.82;101550.94;5115811;28;20023;-82
2023/03/27 00:30:52;;;;;;;13.00;2.90;;;;;;;1.71;100.00;101540.00;5115472;28;20073;-83
2023/03/27 00:33:17;;;;;;;9.63;2.47;;;;;;;1.83;100.00;101554.25;5115844;28;20057;-82
2023/03/27 00:35:47;;;;;;;8.23;2.15;;;;;;;1.90;100.00;101559.25;5115523;28;20472;-81
2023/03/27 00:38:13;;;;;;;10.48;2.33;;;;;;;1.99;100.00;101555.72;5115420;28;20560;-81
2023/03/27 00:40:40;;;;;;;10.32;2.15;;;;;;;1.96;100.00;101536.19;5115232;28;20159;-83
2023/03/27 00:43:27;;;;;;;9.13;2.17;;;;;;;2.15;100.00;101567.31;5115126;28;20480;-83
2023/03/27 00:46:07;;;;;;;9.50;2.20;;;;;;;2.12;100.00;101562.28;5115331;28;20027;-83
2023/03/27 00:48:35;;;;;;;11.50;2.60;;;;;;;2.17;100.00;101564.78;5115436;28;20024;-83
2023/03/27 00:51:02;;;;;;;11.02;2.10;;;;;;;2.26;100.00;101573.09;5096078;28;20525;-83
2023/03/27 00:53:28;;;;;;;7.60;1.50;;;;;;;2.24;99.62;101559.53;5114865;28;20039;-81
2023/03/27 00:55:59;;;;;;;10.15;1.90;;;;;;;2.44;98.67;101583.81;5114958;28;20102;-81
2023/03/27 00:58:29;;;;;;;8.73;2.20;;;;;;;2.39;98.31;101566.09;5115124;28;20473;-83
2023/03/27 01:00:55;;;;;;;8.13;2.08;;;;;;;2.60;99.39;101590.34;5115164;28;20028;-84
2023/03/27 01:03:25;;;;;;;8.50;1.70;;;;;;;2.63;99.99;101595.38;5115106;28;20028;-82
2023/03/27 01:05:53;;;;;;;10.30;1.77;;;;;;;2.66;99.25;101599.63;5115176;28;20028;-83
2023/03/27 01:08:19;;;;;;;5.63;1.65;;;;;;;2.64;99.78;101591.13;5114688;28;20064;-81
2023/03/27 01:11:13;;;;;;;7.93;1.67;;;;;;;2.74;99.67;101615.59;5096461;28;20521;-85
2023/03/27 01:14:00;;;;;;;8.80;2.03;;;;;;;2.52;100.00;101579.44;5114811;28;20031;-82
2023/03/27 01:17:02;;;;;;;9.10;2.05;;;;;;;2.58;100.00;101598.03;5114743;28;20031;-83
2023/03/27 01:19:37;;;;;;;8.30;2.10;;;;;;;2.50;100.00;101601.59;5114751;28;20031;-82
2023/03/27 01:22:31;;;;;;;6.97;1.80;;;;;;;2.42;100.00;101595.75;5096152;28;20031;-76
2023/03/27 01:25:21;;;;;;;7.43;1.88;;;;;;;2.37;100.00;101595.03;5095834;28;20039;-83
2023/03/27 01:28:05;;;;;;;7.50;2.15;;;;;;;2.33;100.00;101606.13;5114663;28;20091;-82
2023/03/27 01:44:50;;;;;;;7.75;1.85;;;;;;;1.86;100.00;101611.06;5702358;22;20048;-81
2023/03/27 01:47:35;;;;;;;7.55;1.88;;;;;;;1.95;100.00;101636.41;5093448;28;20036;-80
2023/03/27 01:50:32;;;;;;;9.60;2.80;;;;;;;1.88;100.00;101611.91;5093711;28;20377;-79
2023/03/27 01:53:02;;;;;;;9.10;2.60;;;;;;;2.00;100.00;101631.25;5092776;28;20028;-77
2023/03/27 01:55:37;;;;;;;6.78;2.60;;;;;;;1.88;100.00;101606.81;5093681;28;20028;-76
2023/03/27 01:58:27;;;;;;;9.68;2.50;;;;;;;1.95;100.00;101615.19;5093556;28;20024;-79
2023/03/27 02:00:56;;;;;;;8.43;2.55;;;;;;;2.09;100.00;101637.94;5093401;28;20106;-77
2023/03/27 02:03:32;;;;;;;12.20;3.35;;;;;;;1.90;100.00;101616.97;5091514;28;20114;-81
2023/03/27 02:06:05;;;;;;;11.35;2.85;;;;;;;2.00;100.00;101641.44;5092928;28;20028;-78
2023/03/27 02:11:57;;;;;;;9.30;2.70;;;;;;;1.87;100.00;101645.88;5135304;22;20048;-80
2023/03/27 02:14:36;;;;;;;8.88;2.85;;;;;;;0.97;100.00;101529.97;5093362;28;20090;-74
2023/03/27 02:17:09;;;;;;;8.50;2.72;;;;;;;1.67;100.00;101661.44;5093342;28;20062;-74
2023/03/27 02:20:13;;;;;;;9.23;2.70;;;;;;;1.61;100.00;101665.75;5093457;28;20480;-74
2023/03/27 02:22:40;;;;;;;7.38;2.63;;;;;;;1.37;100.00;101642.25;5011057;28;20121;-74
2023/03/27 02:25:24;;;;;;;10.48;2.67;;;;;;;1.44;100.00;101666.78;5011212;28;20243;-75
2023/03/27 02:27:58;;;;;;;9.45;3.13;;;;;;;1.35;100.00;101669.44;5011163;28;20160;-74
2023/03/27 02:30:37;;;;;;;8.63;3.03;;;;;;;1.10;100.00;101643.44;5010896;28;20092;-75
2023/03/27 02:33:26;;;;;;;10.07;2.75;;;;;;;1.21;100.00;101678.94;5011175;28;20065;-75
2023/03/27 02:36:02;;;;;;;8.77;2.83;;;;;;;1.15;100.00;101678.97;5011161;28;20085;-75
2023/03/27 02:38:45;;;;;;;8.32;3.20;;;;;;;0.97;100.00;101656.28;5010864;28;20100;-75
2023/03/27 02:41:26;;;;;;;10.82;3.80;;;;;;;1.11;100.00;101687.53;5011003;28;20410;-75
2023/03/27 02:43:54;;;;;;;8.55;2.88;;;;;;;1.09;100.00;101685.00;4994527;28;20038;-75
2023/03/27 02:46:35;;;;;;;9.77;3.20;;;;;;;0.82;100.00;101637.78;5010701;28;20034;-75
2023/03/27 02:49:08;;;;;;;5.57;2.88;;;;;;;1.08;100.00;101696.03;5010988;28;20189;-75
2023/03/27 02:51:49;;;;;;;9.50;2.95;;;;;;;1.03;100.00;101684.22;5010672;28;20686;-74
2023/03/27 02:54:20;;;;;;;10.32;3.25;;;;;;;1.08;100.00;101682.44;5010578;28;20137;-75
2023/03/27 02:56:50;;;;;;;11.13;3.05;;;;;;;1.09;100.00;101690.09;5010740;28;20113;-75
2023/03/27 02:59:27;;;;;;;9.48;3.78;;;;;;;1.25;100.00;101708.56;5064773;28;20275;-75
2023/03/27 03:01:53;;;;;;;12.85;3.78;;;;;;;1.20;100.00;101697.59;5092549;28;20491;-75
2023/03/27 03:04:25;;;;;;;11.52;3.30;;;;;;;1.28;100.00;101708.56;5092342;28;20077;-75
2023/03/27 03:06:53;;;;;;;10.55;3.45;;;;;;;1.05;100.00;101670.59;5092643;28;20052;-75
2023/03/27 03:09:18;;;;;;;10.77;3.10;;;;;;;1.25;100.00;101703.47;5092261;28;20347;-74
2023/03/27 03:11:50;;;;;;;16.55;3.67;;;;;;;1.26;100.00;101727.22;5091501;28;20063;-75
2023/03/27 03:14:17;;;;;;;;;;;;;;;1.22;100.00;101736.59;5074821;28;20431;-75
2023/03/27 03:16:43;;;;;;;9.65;2.80;;;;;;;1.18;100.00;101732.41;5092590;28;19912;-75
2023/03/27 03:19:08;;;;;;;9.25;2.90;;;;;;;0.93;100.00;101705.50;5092517;28;20020;-75
2023/03/27 03:21:33;;;;;;;9.70;3.40;;;;;;;1.02;100.00;101736.78;5092535;28;20049;-75
2023/03/27 03:23:59;;;;;;;7.07;2.90;;;;;;;0.91;100.00;101719.94;5092486;28;20028;-75
2023/03/27 03:26:25;;;;;;;11.98;3.10;;;;;;;0.88;100.00;101722.47;5091458;28;20047;-77
2023/03/27 03:28:51;;;;;;;9.07;2.83;;;;;;;0.79;100.00;101714.09;5092327;28;20066;-77
2023/03/27 03:31:17;;;;;;;9.35;2.83;;;;;;;0.98;100.00;101744.44;5092302;28;20036;-74
2023/03/27 03:33:42;;;;;;;11.20;3.10;;;;;;;1.01;100.00;101749.50;5092494;28;20024;-75
2023/03/27 03:36:08;;;;;;;8.82;2.50;;;;;;;0.92;100.00;101747.03;5092420;28;20020;-74
2023/03/27 03:38:34;;;;;;;9.50;2.83;;;;;;;0.94;100.00;101761.41;5092197;28;20027;-75
2023/03/27 03:41:00;;;;;;;8.15;2.65;;;;;;;0.70;100.00;101739.59;5092227;28;20051;-74
2023/03/27 03:43:28;;;;;;;10.40;2.58;;;;;;;0.88;100.00;101768.25;5092422;28;20103;-74
2023/03/27 03:45:54;;;;;;;7.97;2.67;;;;;;;0.89;100.00;101772.50;5092180;28;20016;-74
2023/03/27 04:01:52;;;;;;;8.80;2.60;;;;;;;0.98;100.00;101792.75;1210652;26;20164;-77
2023/03/27 04:04:18;;;;;;;9.07;2.58;;;;;;;0.97;100.00;101791.06;5112634;28;20023;-78
2023/03/27 04:06:44;;;;;;;9.38;2.50;;;;;;;0.96;100.00;101807.19;5112773;28;20020;-74
2023/03/27 04:11:39;;;;;;;11.75;2.80;;;;;;;0.95;100.00;101803.78;5070792;28;20041;-82
2023/03/27 04:14:06;;;;;;;8.15;2.63;;;;;;;0.97;100.00;101808.88;5071699;28;20063;-80
2023/03/27 04:16:31;;;;;;;8.77;2.40;;;;;;;0.79;100.00;101782.75;5072763;28;20024;-73
2023/03/27 04:18:56;;;;;;;6.75;3.20;;;;;;;1.01;100.00;101821.56;5057118;28;20043;-81
2023/03/27 04:21:25;;;;;;;7.82;2.10;;;;;;;0.98;100.00;101811.38;5075056;28;20466;-78
2023/03/27 04:23:50;;;;;;;12.40;3.08;;;;;;;0.88;100.00;101814.84;5075169;28;20029;-78
2023/03/27 04:26:16;;;;;;;8.07;2.70;;;;;;;0.86;100.00;101826.75;5075406;28;20473;-77
2023/03/27 04:28:41;;;;;;;5.97;2.40;;;;;;;0.79;100.00;101825.97;5057347;28;20485;-76
2023/03/27 04:31:09;;;;;;;8.38;2.67;;;;;;;0.71;100.00;101827.72;5075411;28;20050;-75
2023/03/27 04:33:45;;;;;;;10.60;3.00;;;;;;;0.68;100.00;101837.03;5075117;28;20104;-83
2023/03/27 04:36:13;;;;;;;8.45;2.88;;;;;;;0.70;100.00;101848.06;5074974;28;20020;-81
2023/03/27 04:38:39;;;;;;;11.27;4.35;;;;;;;0.53;100.00;101813.41;5074583;28;20031;-74
2023/03/27 04:41:06;;;;;;;9.70;2.95;;;;;;;0.75;100.00;101856.47;5074701;28;20035;-79
2023/03/27 04:43:35;;;;;;;8.63;2.97;;;;;;;0.81;100.00;101849.69;5074789;28;20028;-73
2023/03/27 04:46:01;;;;;;;7.88;3.00;;;;;;;0.73;100.00;101837.84;5074628;28;20020;-73
2023/03/27 04:48:26;;;;;;;7.53;2.97;;;;;;;0.79;100.00;101853.94;5091184;22;20195;-74
2023/03/27 04:50:51;;;;;;;8.43;3.45;;;;;;;0.89;100.00;101866.59;5095402;28;20092;-74
2023/03/27 04:53:19;;;;;;;7.55;3.13;;;;;;;0.94;100.00;101864.84;5094978;28;20039;-79
2023/03/27 04:55:45;;;;;;;11.23;3.75;;;;;;;0.83;100.00;101844.56;5094873;28;20028;-80
2023/03/27 04:58:12;;;;;;;10.23;3.25;;;;;;;0.99;100.00;101869.06;5094925;28;20032;-73
2023/03/27 05:00:41;;;;;;;12.20;3.22;;;;;;;0.97;100.00;101865.66;5094887;28;20031;-75
2023/03/27 05:03:07;;;;;;;7.15;3.40;;;;;;;0.96;100.00;101876.69;5093817;28;20028;-77
2023/03/27 05:05:33;;;;;;;9.45;3.55;;;;;;;0.87;100.00;101866.56;5094829;28;20515;-74
2023/03/27 05:07:59;;;;;;;10.07;4.07;;;;;;;0.85;100.00;101884.38;5094610;28;20032;-74
2023/03/27 05:10:24;;;;;;;10.57;3.50;;;;;;;0.71;100.00;101868.38;5094928;28;20024;-75
2023/03/27 05:12:52;;;;;;;7.78;3.25;;;;;;;0.84;100.00;101895.41;5076266;28;20059;-75
2023/03/27 05:15:18;;;;;;;9.88;3.53;;;;;;;0.76;100.00;101888.69;5094803;28;20020;-75
2023/03/27 05:17:45;;;;;;;9.05;2.92;;;;;;;0.62;100.00;101870.97;5094761;28;20119;-76
2023/03/27 05:20:15;;;;;;;11.07;3.58;;;;;;;0.77;100.00;101901.38;5094405;28;20028;-73
2023/03/27 05:22:42;;;;;;;9.60;3.67;;;;;;;0.79;100.00;101902.25;5094345;28;20031;-76
2023/03/27 05:25:08;;;;;;;10.70;3.72;;;;;;;0.88;100.00;101906.41;5094556;28;20063;-76
2023/03/27 05:27:34;;;;;;;10.07;3.08;;;;;;;0.78;100.00;101889.50;5092715;28;20040;-75
2023/03/27 05:30:00;;;;;;;11.07;3.60;;;;;;;0.95;100.00;101917.38;5094643;28;20471;-73
2023/03/27 05:32:25;;;;;;;11.55;3.38;;;;;;;0.94;100.00;101910.63;5094744;28;20034;-78
2023/03/27 05:34:53;;;;;;;10.80;3.78;;;;;;;0.65;100.00;101853.16;5094411;28;20532;-79
2023/03/27 05:37:19;;;;;;;11.88;3.83;;;;;;;1.12;100.00;101926.63;5093252;28;20076;-76
2023/03/27 05:39:45;;;;;;;13.80;3.70;;;;;;;1.23;100.00;101911.28;5076095;28;20047;-77
2023/03/27 05:42:13;;;;;;;9.77;3.85;;;;;;;1.41;100.00;101923.88;5094133;28;20039;-74
2023/03/27 05:44:38;;;;;;;10.20;3.78;;;;;;;1.42;100.00;101912.00;5094080;28;20106;-75
2023/03/27 05:47:04;;;;;;;10.20;3.35;;;;;;;1.61;100.00;101925.41;5093862;28;20056;-75
2023/03/27 05:49:30;;;;;;;9.35;3.30;;;;;;;1.66;100.00;101924.50;5093777;28;20048;-75
2023/03/27 05:51:56;;;;;;;9.02;3.72;;;;;;;1.85;100.00;101944.72;5093745;28;20110;-75
2023/03/27 05:54:21;;;;;;;9.30;3.42;;;;;;;1.83;100.00;101916.72;5091648;28;20065;-75
2023/03/27 05:56:47;;;;;;;11.75;3.50;;;;;;;2.12;100.00;101930.88;5093925;28;20043;-75
2023/03/27 05:59:12;;;;;;;12.63;3.05;;;;;;;2.45;100.00;101973.00;5093859;28;20477;-75
2023/03/27 06:01:38;;;;;;;8.52;3.20;;;;;;;2.52;100.00;101984.81;5093536;28;20016;-77
2023/03/27 06:04:04;;;;;;;6.93;2.47;;;;;;;2.39;100.00;101983.28;5093652;28;20055;-74
2023/03/27 06:06:29;;;;;;;7.97;2.70;;;;;;;2.15;100.00;101987.75;5093379;28;20449;-78
2023/03/27 06:08:57;;;;;;;6.43;2.00;;;;;;;1.88;100.00;101983.75;5093238;28;20059;-74
2023/03/27 06:11:23;;;;;;;6.95;2.10;;;;;;;1.78;100.00;101968.56;5075086;28;20465;-73
2023/03/27 06:13:49;;;;;;;7.20;1.77;;;;;;;1.68;100.00;101968.66;5093280;28;20067;-74
2023/03/27 06:16:19;;;;;;;4.82;1.92;;;;;;;1.62;100.00;101972.94;5093320;28;20028;-75
2023/03/27 06:18:45;;;;;;;4.13;1.83;;;;;;;1.58;100.00;101976.38;5058147;28;20041;-76
2023/03/27 06:21:10;;;;;;;4.10;1.50;;;;;;;1.50;100.00;101963.69;5055434;28;20159;-72
2023/03/27 06:23:35;;;;;;;8.48;1.65;;;;;;;1.51;100.00;101970.47;5073235;28;20097;-81
2023/03/27 06:26:01;;;;;;;6.30;2.00;;;;;;;1.32;100.00;101940.91;5072927;28;20021;-72
2023/03/27 06:28:27;;;;;;;5.05;1.63;;;;;;;1.56;100.00;101984.00;5073279;28;20021;-73
2023/03/27 06:30:52;;;;;;;7.47;2.10;;;;;;;1.58;100.00;101989.09;5072809;28;20031;-74
2023/03/27 06:33:18;;;;;;;5.10;1.90;;;;;;;1.61;100.00;101986.50;5072811;28;20031;-75
2023/03/27 06:35:44;;;;;;;5.60;1.90;;;;;;;1.49;100.00;101969.63;5072960;28;20060;-75
2023/03/27 06:38:11;;;;;;;4.35;1.70;;;;;;;1.55;100.00;101974.66;5072784;28;20086;-73
2023/03/27 06:40:37;;;;;;;5.40;1.75;;;;;;;1.79;100.00;101970.25;5072127;28;20081;-73
2023/03/27 06:43:09;;;;;;;6.40;2.00;;;;;;;3.17;100.00;101971.25;5085138;28;20466;-74
2023/03/27 06:45:47;;;;;;;10.32;2.42;;;;;;;5.03;100.00;101999.50;5082355;28;20094;-72
2023/03/27 06:48:14;;;;;;;3.97;1.70;;;;;;;6.10;94.14;102005.59;5082283;28;20117;-73
2023/03/27 06:50:39;;;;;;;2.83;1.60;;;;;;;7.00;86.66;102008.25;5080849;28;20024;-74
2023/03/27 06:53:05;;;;;;;4.97;1.55;;;;;;;7.60;82.15;101986.69;5080856;28;20469;-73
2023/03/27 06:55:32;;;;;;;4.20;1.38;;;;;;;8.24;77.04;101987.09;5072250;28;20021;-73
2023/03/27 06:58:00;;;;;;;5.40;1.40;;;;;;;8.74;73.50;101984.50;5072418;28;20048;-72
2023/03/27 07:00:29;;;;;;;6.07;1.42;;;;;;;9.34;70.91;102024.34;5072309;28;20031;-75
2023/03/27 07:02:57;;;;;;;3.53;1.35;;;;;;;9.52;67.64;102027.06;5054358;28;20465;-74
2023/03/27 07:05:24;;;;;;;4.18;1.70;;;;;;;9.76;67.98;102021.78;5072516;28;20025;-75
2023/03/27 07:07:49;;;;;;;2.25;1.42;;;;;;;10.09;64.80;102031.63;5072432;28;20056;-76
2023/03/27 07:10:15;;;;;;;5.35;1.52;;;;;;;10.00;64.70;101994.13;5072493;28;20469;-76
2023/03/27 07:12:47;;;;;;;3.40;1.50;;;;;;;9.33;66.57;102038.09;5072077;28;20035;-76
2023/03/27 07:15:13;;;;;;;4.88;1.20;;;;;;;7.76;68.64;102036.72;5054478;28;20033;-78
2023/03/27 07:17:43;;;;;;;6.40;1.83;;;;;;;6.69;72.56;102044.22;5072374;28;20142;-75
2023/03/27 07:20:11;;;;;;;3.50;1.52;;;;;;;5.95;78.00;102019.63;5072006;28;20025;-76
2023/03/27 07:22:36;;;;;;;4.35;1.42;;;;;;;5.66;79.73;102027.13;5072437;28;20028;-76
2023/03/27 07:25:03;;;;;;;6.43;1.48;;;;;;;5.63;81.16;102056.22;5207172;22;20054;-76
2023/03/27 07:27:28;;;;;;;3.85;1.60;;;;;;;5.34;83.33;102036.38;5092242;28;20500;-76
2023/03/27 07:29:55;;;;;;;5.07;1.40;;;;;;;5.05;83.65;102031.88;5092587;28;20112;-76
2023/03/27 07:32:20;;;;;;;5.78;1.67;;;;;;;4.86;85.11;102056.16;5091177;28;20059;-76
2023/03/27 07:34:45;;;;;;;6.03;1.67;;;;;;;4.24;85.15;102038.56;5079282;28;20064;-76
2023/03/27 07:37:11;;;;;;;6.82;2.22;;;;;;;3.96;87.50;102027.94;5079967;28;20020;-76
2023/03/27 07:39:36;;;;;;;7.47;2.50;;;;;;;3.94;88.26;102051.84;5081745;28;20024;-76
2023/03/27 07:42:02;;;;;;;6.75;2.17;;;;;;;3.80;88.61;102057.16;5078340;28;20043;-80
2023/03/27 07:44:27;;;;;;;6.70;1.88;;;;;;;3.74;90.03;102060.66;5079472;28;20106;-77
2023/03/27 07:46:53;;;;;;;8.43;2.00;;;;;;;3.74;90.56;102065.75;5081679;28;20024;-77
2023/03/27 07:49:18;;;;;;;9.95;3.08;;;;;;;3.57;90.68;102043.88;5079838;28;20047;-77
2023/03/27 07:51:44;;;;;;;8.00;2.28;;;;;;;3.68;89.99;102072.66;5082473;28;20024;-77
2023/03/27 07:54:12;;;;;;;6.25;1.92;;;;;;;3.66;89.84;102065.03;5085395;28;20036;-76
2023/03/27 07:56:38;;;;;;;7.60;2.22;;;;;;;3.68;90.21;102068.41;5094983;28;20024;-80
2023/03/27 07:59:05;;;;;;;6.10;1.70;;;;;;;3.66;89.11;102067.59;5094701;28;20031;-81
2023/03/27 08:01:31;;;;;;;7.45;1.83;;;;;;;3.72;87.30;102077.69;5095961;28;20067;-80
2023/03/27 08:03:56;;;;;;;8.65;1.92;;;;;;;3.79;88.61;102075.06;5096112;28;20024;-79
2023/03/27 08:06:22;;;;;;;8.57;2.20;;;;;;;3.92;87.24;102089.31;5089146;28;20066;-80
2023/03/27 08:08:49;;;;;;;10.68;2.58;;;;;;;3.94;86.48;102052.69;5094554;28;20469;-78
2023/03/27 08:11:15;;;;;;;5.55;1.67;;;;;;;4.37;84.83;102092.03;5095834;28;20054;-77
2023/03/27 08:13:41;;;;;;;5.63;1.67;;;;;;;4.22;84.17;102057.31;5095603;28;20043;-79
2023/03/27 08:16:15;;;;;;;8.95;1.95;;;;;;;4.21;86.23;102066.69;5094922;28;20056;-82
2023/03/27 08:18:41;;;;;;;9.48;1.77;;;;;;;4.29;86.29;102087.88;5096438;28;20028;-82
2023/03/27 08:21:07;;;;;;;6.95;1.67;;;;;;;4.31;86.83;102092.97;5095798;28;20028;-80
2023/03/27 08:23:34;;;;;;;5.35;1.70;;;;;;;4.37;86.17;102095.44;5095661;28;20372;-77
2023/03/27 08:26:00;;;;;;;9.20;2.25;;;;;;;4.28;85.29;102083.63;5095077;28;20048;-76
2023/03/27 08:28:30;;;;;;;6.90;2.00;;;;;;;4.41;85.59;102103.88;5095499;28;20429;-77
2023/03/27 08:30:57;;;;;;;8.70;1.77;;;;;;;4.55;88.79;102086.59;5095430;28;20030;-78
2023/03/27 08:33:23;;;;;;;5.80;1.75;;;;;;;4.78;85.48;102110.03;5095387;28;20024;-79
2023/03/27 08:35:49;;;;;;;5.18;1.08;;;;;;;4.59;82.99;102088.22;5095163;28;20028;-77
2023/03/27 08:38:15;;;;;;;5.85;1.30;;;;;;;4.58;81.41;102091.66;5095380;28;20028;-79
2023/03/27 08:40:47;;;;;;;3.78;0.90;;;;;;;4.83;79.43;102131.28;5095335;28;20387;-78
2023/03/27 08:43:19;;;;;;;4.85;1.10;;;;;;;4.87;78.88;102114.16;5086875;28;20118;-86
2023/03/27 08:45:52;;;;;;;4.57;1.20;;;;;;;4.92;80.71;102104.69;5094418;28;20028;-76
2023/03/27 08:48:40;;;;;;;5.40;1.40;;;;;;;5.12;81.44;102094.06;5095134;28;20017;-77
2023/03/27 08:51:11;;;;;;;3.60;0.90;;;;;;;5.47;79.36;102122.34;5094692;28;20114;-75
2023/03/27 08:54:12;;;;;;;3.50;0.90;;;;;;;5.65;77.53;102125.38;5094943;28;20078;-79
2023/03/27 08:56:37;;;;;;;3.88;1.00;;;;;;;5.68;76.01;102117.63;5094875;28;20028;-80
2023/03/27 08:59:10;;;;;;;4.72;1.05;;;;;;;5.73;74.65;102133.75;5094795;28;20016;-79
2023/03/27 09:01:56;;;;;;;5.75;0.93;;;;;;;5.68;75.21;102146.66;5094678;28;20027;-78
2023/03/27 09:04:46;;;;;;;6.10;1.08;;;;;;;5.73;73.87;102149.13;5094499;28;20469;-80
2023/03/27 09:07:18;;;;;;;5.55;1.00;;;;;;;5.64;75.35;102147.59;5094715;28;20035;-79
2023/03/27 09:09:45;;;;;;;7.32;1.15;;;;;;;5.72;74.84;102147.44;5094944;28;20036;-81
2023/03/27 09:12:29;;;;;;;5.78;0.90;;;;;;;5.92;72.35;102149.59;5094467;28;20032;-80
2023/03/27 09:15:01;;;;;;;6.15;1.20;;;;;;;6.33;73.21;102146.91;5094736;28;20031;-78
2023/03/27 09:17:36;;;;;;;4.20;0.95;;;;;;;6.76;69.32;102163.81;5078670;28;20123;-80
2023/03/27 09:20:12;;;;;;;2.25;0.90;;;;;;;6.22;71.41;102166.00;5074177;28;20078;-80
2023/03/27 09:22:43;;;;;;;2.47;0.90;;;;;;;5.51;72.95;102170.97;5074364;28;20042;-78
2023/03/27 09:25:33;;;;;;;4.63;0.80;;;;;;;4.84;78.78;102199.53;5074104;28;20052;-79
2023/03/27 09:28:00;;;;;;;4.43;0.70;;;;;;;3.50;88.75;102180.19;5073909;28;20025;-78
2023/03/27 09:30:31;;;;;;;1.45;0.60;;;;;;;3.26;95.33;102178.75;5073900;28;20024;-78
2023/03/27 09:33:03;;;;;;;2.38;0.60;;;;;;;3.16;98.84;102175.47;5073729;28;20025;-78
2023/03/27 09:35:29;;;;;;;2.17;0.70;;;;;;;3.10;100.00;102191.66;5074042;28;20058;-79
2023/03/27 09:37:58;;;;;;;1.55;0.60;;;;;;;2.76;100.00;102157.16;5073839;28;20013;-79
2023/03/27 09:41:00;;;;;;;2.08;0.85;;;;;;;2.56;100.00;102142.88;5076398;28;20028;-79
2023/03/27 09:43:41;;;;;;;2.15;0.90;;;;;;;2.75;100.00;102155.44;5011579;28;20041;-79
2023/03/27 09:46:10;;;;;;;2.65;1.00;;;;;;;3.07;100.00;102184.06;5011831;28;20080;-80
2023/03/27 09:48:49;;;;;;;3.47;1.13;;;;;;;3.10;100.00;102165.31;5011881;28;20447;-80
2023/03/27 09:51:36;;;;;;;3.08;1.10;;;;;;;3.30;100.00;102191.47;5011949;28;20113;-80
2023/03/27 09:54:02;;;;;;;3.75;1.23;;;;;;;3.42;100.00;102191.31;5011696;28;20048;-80
2023/03/27 09:56:29;;;;;;;3.95;1.20;;;;;;;3.47;100.00;102152.97;5011397;28;20081;-78
2023/03/27 09:58:56;;;;;;;8.73;1.75;;;;;;;3.73;100.00;102186.69;5015322;28;20037;-76
2023/03/27 10:01:33;;;;;;;9.98;1.58;;;;;;;3.84;100.00;102183.16;5025037;28;20042;-76
2023/03/27 10:03:59;;;;;;;4.35;1.27;;;;;;;4.18;100.00;102201.41;5031185;28;20040;-80
2023/03/27 10:06:31;;;;;;;5.05;1.20;;;;;;;4.37;98.92;102199.44;5031127;28;20037;-78
2023/03/27 10:09:17;;;;;;;4.00;1.15;;;;;;;4.57;94.70;102203.38;5031272;28;20143;-79
2023/03/27 10:11:42;;;;;;;6.22;1.50;;;;;;;4.89;92.40;102200.28;5030856;28;20097;-78
2023/03/27 10:14:21;;;;;;;4.60;1.33;;;;;;;5.34;91.60;102197.75;5030235;28;20045;-79
2023/03/27 10:16:47;;;;;;;8.65;1.38;;;;;;;5.76;91.18;102198.59;5031178;28;20061;-81
2023/03/27 10:19:28;;;;;;;4.15;1.55;;;;;;;6.07;83.06;102199.69;5037645;28;20043;-79
2023/03/27 10:21:55;;;;;;;6.15;1.65;;;;;;;5.97;83.12;102199.03;5072944;28;20048;-79
2023/03/27 10:24:32;;;;;;;6.78;1.27;;;;;;;5.92;82.75;102209.41;5073028;28;20052;-80
2023/03/27 10:26:59;;;;;;;8.93;1.50;;;;;;;5.65;81.38;102213.34;5072751;28;20031;-79
2023/03/27 10:29:30;;;;;;;6.28;1.20;;;;;;;5.46;82.28;102212.88;5072749;28;20023;-81
2023/03/27 10:31:58;;;;;;;3.53;1.27;;;;;;;5.24;78.36;102201.38;5073158;28;20024;-80
2023/03/27 10:34:31;;;;;;;5.40;1.63;;;;;;;5.34;81.80;102208.00;5072917;28;20028;-80
2023/03/27 10:37:00;;;;;;;4.35;1.10;;;;;;;5.50;79.32;102202.56;5073398;28;20089;-79
2023/03/27 10:39:28;;;;;;;6.97;1.05;;;;;;;5.60;72.69;102181.84;5072520;28;20032;-77
2023/03/27 10:41:54;;;;;;;3.80;1.10;;;;;;;6.16;73.27;102215.72;5073504;28;20030;-77
2023/03/27 10:44:24;;;;;;;2.42;0.93;;;;;;;6.07;78.12;102235.59;5077649;28;20055;-77
2023/03/27 10:46:51;;;;;;;3.78;0.93;;;;;;;5.57;79.56;102232.31;5093056;28;20024;-77
2023/03/27 10:49:40;;;;;;;2.55;0.77;;;;;;;5.45;80.50;102267.56;5092705;28;20027;-78
2023/03/27 10:52:33;;;;;;;3.40;0.90;;;;;;;4.82;82.52;102233.69;5092750;28;20491;-78
2023/03/27 10:55:23;;;;;;;6.53;1.27;;;;;;;4.57;83.42;102272.44;5092335;28;20476;-79
2023/03/27 10:57:56;;;;;;;4.97;1.10;;;;;;;4.17;86.27;102286.66;5091229;28;20044;-78
2023/03/27 11:00:47;;;;;;;3.58;0.95;;;;;;;3.43;93.20;102248.34;5092688;28;20062;-78
2023/03/27 11:03:24;;;;;;;4.22;1.00;;;;;;;3.33;99.07;102268.00;5092608;28;20040;-79
2023/03/27 11:05:53;;;;;;;3.22;0.98;;;;;;;3.08;98.17;102269.97;5092782;28;20469;-79
2023/03/27 11:08:24;;;;;;;2.47;0.80;;;;;;;2.95;100.00;102281.16;5092992;28;20097;-80
2023/03/27 11:10:50;;;;;;;3.20;1.02;;;;;;;2.79;100.00;102261.69;5092667;28;20020;-80
2023/03/27 11:13:28;;;;;;;2.33;1.10;;;;;;;2.91;100.00;102278.63;5092465;28;20031;-80
2023/03/27 11:16:06;;;;;;;3.15;0.70;;;;;;;3.07;100.00;102270.81;5092543;28;20533;-80
2023/03/27 11:18:39;;;;;;;4.53;1.10;;;;;;;3.09;95.65;102255.50;5080813;28;20028;-78
2023/03/27 11:21:14;;;;;;;4.63;1.00;;;;;;;3.21;95.14;102246.88;5080289;28;20056;-77
2023/03/27 11:23:49;;;;;;;4.07;1.20;;;;;;;3.57;96.05;102269.47;5079195;28;20123;-77
2023/03/27 11:26:18;;;;;;;5.80;1.13;;;;;;;3.78;94.54;102267.56;5081769;28;20059;-78
2023/03/27 11:28:45;;;;;;;5.28;1.30;;;;;;;4.02;95.59;102259.56;5076233;28;20379;-79
2023/03/27 11:31:38;;;;;;;5.15;1.45;;;;;;;4.21;91.26;102265.28;5073942;28;20123;-76
2023/03/27 11:34:14;;;;;;;5.13;1.20;;;;;;;4.34;90.88;102253.19;5076229;28;20067;-77
2023/03/27 11:36:43;;;;;;;5.32;1.15;;;;;;;4.57;90.13;102263.94;5074756;28;20111;-78
2023/03/27 11:39:08;;;;;;;7.63;1.58;;;;;;;4.76;87.22;102257.66;5087838;28;20086;-75
2023/03/27 11:41:34;;;;;;;6.18;1.38;;;;;;;4.99;88.70;102264.94;5097555;28;20024;-76
2023/03/27 11:44:00;;;;;;;7.13;1.50;;;;;;;5.21;86.99;102228.72;5096406;28;20016;-76
2023/03/27 11:46:51;;;;;;;5.75;1.33;;;;;;;5.89;87.96;102234.22;5096352;28;20020;-74
2023/03/27 11:49:47;;;;;;;4.60;1.67;;;;;;;6.20;82.27;102234.47;5096315;28;20431;-76
2023/03/27 11:52:27;;;;;;;4.25;1.08;;;;;;;6.37;72.20;102275.97;5096304;28;20471;-81
2023/03/27 11:55:05;;;;;;;3.55;0.90;;;;;;;6.32;70.07;102277.78;5094626;28;20063;-77
2023/03/27 11:57:49;;;;;;;2.55;0.82;;;;;;;6.46;70.57;102286.00;5095679;28;20031;-81
2023/03/27 12:00:41;;;;;;;3.95;0.88;;;;;;;6.59;70.87;102282.31;5095792;28;20028;-82
2023/03/27 12:03:21;;;;;;;1.70;0.65;;;;;;;6.68;67.56;102288.09;5095915;28;20384;-81
2023/03/27 12:05:58;;;;;;;2.95;0.80;;;;;;;6.52;66.60;102285.88;5094412;28;20020;-79
2023/03/27 12:09:00;;;;;;;5.35;0.90;;;;;;;6.44;66.88;102282.66;5095872;28;20481;-79
2023/03/27 12:11:28;;;;;;;6.13;0.90;;;;;;;6.12;67.76;102244.03;5095669;28;20103;-82
2023/03/27 12:14:16;;;;;;;4.28;0.93;;;;;;;6.38;69.61;102277.63;5095571;28;20024;-80
2023/03/27 12:16:56;;;;;;;6.25;1.65;;;;;;;6.43;69.28;102280.97;5095012;28;20376;-80
2023/03/27 12:19:40;;;;;;;4.00;0.75;;;;;;;6.37;67.78;102273.38;5095460;28;20516;-83